createdAt,value
2023-02-13T00:01:07.372Z,74.23
2023-02-13T00:03:36.969Z,72.97
2023-02-13T00:06:05.305Z,73.17
2023-02-13T00:08:33.477Z,70.47
2023-02-13T00:11:02.209Z,65.47
2023-02-13T00:13:30.337Z,74.77
2023-02-13T00:15:59.833Z,74.73
2023-02-13T00:18:28.979Z,68.73
2023-02-13T00:21:03.685Z,67.20
2023-02-13T00:23:33.004Z,73.30
2023-02-13T00:26:01.934Z,65.77
2023-02-13T00:28:30.080Z,57.37
2023-02-13T00:31:05.307Z,67.87
2023-02-13T00:33:33.768Z,62.67
2023-02-13T00:36:12.065Z,64.93
2023-02-13T00:38:41.834Z,64.47
2023-02-13T00:41:10.844Z,63.33
2023-02-13T00:43:39.460Z,49.83
2023-02-13T00:46:07.800Z,53.00
2023-02-13T00:48:36.530Z,59.83
2023-02-13T00:51:05.579Z,51.17
2023-02-13T00:53:35.893Z,59.07
2023-02-13T00:56:04.596Z,51.67
2023-02-13T00:58:32.964Z,51.17
2023-02-13T01:01:01.517Z,40.77
2023-02-13T01:03:29.895Z,59.13
2023-02-13T01:05:58.911Z,49.03
2023-02-13T01:08:28.348Z,51.87
2023-02-13T01:10:58.785Z,44.90
2023-02-13T01:13:27.364Z,45.20
2023-02-13T01:15:55.741Z,41.83
2023-02-13T01:18:24.052Z,40.53
2023-02-13T01:21:00.063Z,47.87
2023-02-13T01:23:31.332Z,42.43
2023-02-13T01:26:01.262Z,44.40
2023-02-13T01:28:29.577Z,46.50
2023-02-13T01:30:59.119Z,47.83
2023-02-13T01:33:29.494Z,42.17
2023-02-13T01:35:58.125Z,43.43
2023-02-13T01:38:26.278Z,45.17
2023-02-13T01:40:55.752Z,41.93
2023-02-13T01:43:26.217Z,41.33
2023-02-13T01:45:57.524Z,41.50
2023-02-13T01:48:30.318Z,39.87
2023-02-13T01:51:02.063Z,35.37
2023-02-13T01:53:34.595Z,36.23
2023-02-13T01:56:09.357Z,45.30
2023-02-13T01:58:42.963Z,42.03
2023-02-13T02:01:12.125Z,37.77
2023-02-13T02:03:44.565Z,41.43
2023-02-13T02:06:19.226Z,39.73
2023-02-13T02:08:48.715Z,41.63
2023-02-13T02:11:34.932Z,36.80
2023-02-13T02:14:04.549Z,33.27
2023-02-13T02:16:33.765Z,42.87
2023-02-13T02:19:05.282Z,34.67
2023-02-13T02:22:12.181Z,39.50
2023-02-13T02:25:01.075Z,33.50
2023-02-13T02:28:02.634Z,33.93
2023-02-13T02:31:15.461Z,32.40
2023-02-13T02:33:57.689Z,35.97
2023-02-13T02:36:37.087Z,34.47
2023-02-13T02:39:13.972Z,29.10
2023-02-13T02:41:55.951Z,35.63
2023-02-13T02:44:34.023Z,32.93
2023-02-13T02:47:32.339Z,35.00
2023-02-13T02:50:15.947Z,32.43
2023-02-13T02:52:50.520Z,40.23
2023-02-13T02:55:31.686Z,31.43
2023-02-13T02:58:23.792Z,33.10
2023-02-13T03:01:11.141Z,34.83
2023-02-13T03:03:57.299Z,36.53
2023-02-13T03:06:31.515Z,36.23
2023-02-13T03:09:29.116Z,31.97
2023-02-13T03:12:16.129Z,33.03
2023-02-13T03:14:44.461Z,37.80
2023-02-13T03:17:33.012Z,31.20
2023-02-13T03:20:30.518Z,35.63
2023-02-13T03:23:14.972Z,37.80
2023-02-13T03:26:05.031Z,33.37
2023-02-13T03:28:56.317Z,36.63
2023-02-13T03:31:34.346Z,38.27
2023-02-13T03:34:05.879Z,38.27
2023-02-13T03:37:02.236Z,34.10
2023-02-13T03:39:43.158Z,34.03
2023-02-13T03:42:16.638Z,36.13
2023-02-13T03:45:10.022Z,30.13
2023-02-13T03:47:38.861Z,36.10
2023-02-13T03:50:10.009Z,34.80
2023-02-13T03:52:43.860Z,35.53
2023-02-13T03:55:33.326Z,35.57
2023-02-13T03:58:23.906Z,37.20
2023-02-13T04:00:56.498Z,36.33
2023-02-13T04:03:29.195Z,37.07
2023-02-13T04:06:02.962Z,37.47
2023-02-13T04:08:31.290Z,27.77
2023-02-13T04:11:09.381Z,29.20
2023-02-13T04:13:41.938Z,32.83
2023-02-13T04:16:14.660Z,32.73
2023-02-13T04:18:44.316Z,43.00
2023-02-13T04:21:12.439Z,31.10
2023-02-13T04:23:40.589Z,33.87
2023-02-13T04:26:18.637Z,33.87
2023-02-13T04:28:46.770Z,34.27
2023-02-13T04:31:15.011Z,35.60
2023-02-13T04:33:43.163Z,36.40
2023-02-13T04:36:11.378Z,38.77
2023-02-13T04:38:39.784Z,33.90
2023-02-13T04:41:07.897Z,31.53
2023-02-13T04:43:37.387Z,29.33
2023-02-13T04:46:06.097Z,41.80
2023-02-13T04:48:34.277Z,36.23
2023-02-13T04:51:02.381Z,42.37
2023-02-13T04:53:30.469Z,39.63
2023-02-13T04:55:58.593Z,34.47
2023-02-13T04:58:26.751Z,34.50
2023-02-13T05:00:56.513Z,37.70
2023-02-13T05:03:24.792Z,38.87
2023-02-13T05:05:52.874Z,33.00
2023-02-13T05:08:21.606Z,34.53
2023-02-13T05:10:50.089Z,38.73
2023-02-13T05:13:21.589Z,35.43
2023-02-13T05:15:50.449Z,32.70
2023-02-13T05:18:20.118Z,35.13
2023-02-13T05:21:08.661Z,32.77
2023-02-13T05:23:35.830Z,35.47
2023-02-13T05:26:04.029Z,35.50
2023-02-13T05:28:49.571Z,35.30
2023-02-13T05:31:17.727Z,39.67
2023-02-13T05:33:49.840Z,34.67
2023-02-13T05:36:17.975Z,31.63
2023-02-13T05:38:46.186Z,32.60
2023-02-13T05:41:14.527Z,31.20
2023-02-13T05:43:42.614Z,31.73
2023-02-13T05:46:11.543Z,36.97
2023-02-13T05:48:41.381Z,31.00
2023-02-13T05:51:10.954Z,32.03
2023-02-13T05:53:39.237Z,29.73
2023-02-13T05:56:08.437Z,31.07
2023-02-13T05:58:36.629Z,34.50
2023-02-13T06:01:05.642Z,31.87
2023-02-13T06:03:34.215Z,30.90
2023-02-13T06:06:02.476Z,36.40
2023-02-13T06:08:32.063Z,32.27
2023-02-13T06:11:00.496Z,30.83
2023-02-13T06:13:28.912Z,26.63
2023-02-13T06:15:57.250Z,31.67
2023-02-13T06:18:25.838Z,34.03
2023-02-13T06:20:54.072Z,26.80
2023-02-13T06:23:22.295Z,27.40
2023-02-13T06:25:51.952Z,27.27
2023-02-13T06:28:20.156Z,26.10
2023-02-13T06:30:48.977Z,27.33
2023-02-13T06:33:17.128Z,28.03
2023-02-13T06:35:45.332Z,23.37
2023-02-13T06:38:13.469Z,29.87
2023-02-13T06:40:41.642Z,29.53
2023-02-13T06:43:11.184Z,27.97
2023-02-13T06:45:39.466Z,28.57
2023-02-13T06:48:08.172Z,25.37
2023-02-13T06:50:36.486Z,21.37
2023-02-13T06:53:04.637Z,28.23
2023-02-13T06:55:32.801Z,22.07
2023-02-13T06:58:00.927Z,20.27
2023-02-13T07:00:30.485Z,26.70
2023-02-13T07:03:04.593Z,27.60
2023-02-13T07:05:32.782Z,26.27
2023-02-13T07:08:00.905Z,28.20
2023-02-13T07:10:29.108Z,29.67
2023-02-13T07:13:05.669Z,26.57
2023-02-13T07:15:37.346Z,34.20
2023-02-13T07:18:06.394Z,35.23
2023-02-13T07:20:35.136Z,28.67
2023-02-13T07:23:04.485Z,30.17
2023-02-13T07:25:33.285Z,27.97
2023-02-13T07:28:03.980Z,30.93
2023-02-13T07:30:32.706Z,32.20
2023-02-13T07:33:03.583Z,24.30
2023-02-13T07:35:32.088Z,28.13
2023-02-13T07:38:03.392Z,26.00
2023-02-13T07:40:31.724Z,29.53
2023-02-13T07:43:02.356Z,33.57
2023-02-13T07:45:30.610Z,26.50
2023-02-13T07:47:59.821Z,37.17
2023-02-13T07:50:30.040Z,32.07
2023-02-13T07:52:58.905Z,24.80
2023-02-13T07:55:27.327Z,28.00
2023-02-13T07:57:55.782Z,33.50
2023-02-13T08:00:24.412Z,28.37
2023-02-13T08:02:52.600Z,28.57
2023-02-13T08:05:20.752Z,25.77
2023-02-13T08:07:50.275Z,24.07
2023-02-13T08:10:36.443Z,27.43
2023-02-13T08:13:05.249Z,25.87
2023-02-13T08:15:33.458Z,22.87
2023-02-13T08:18:01.660Z,27.83
2023-02-13T08:20:29.853Z,23.13
2023-02-13T08:23:06.223Z,27.23
2023-02-13T08:25:34.525Z,28.40
2023-02-13T08:28:03.234Z,26.10
2023-02-13T08:30:31.424Z,27.30
2023-02-13T08:32:59.587Z,29.37
2023-02-13T08:35:29.816Z,26.07
2023-02-13T08:37:58.391Z,27.03
2023-02-13T08:40:28.193Z,26.50
2023-02-13T08:43:02.273Z,19.23
2023-02-13T08:45:31.047Z,25.13
2023-02-13T08:47:59.239Z,27.40
2023-02-13T08:50:28.620Z,31.83
2023-02-13T08:52:56.799Z,22.67
2023-02-13T08:55:24.997Z,23.37
2023-02-13T08:57:54.521Z,26.30
2023-02-13T09:00:23.108Z,26.43
2023-02-13T09:02:51.373Z,31.13
2023-02-13T09:05:19.606Z,29.10
2023-02-13T09:07:48.029Z,21.87
2023-02-13T09:10:16.166Z,27.07
2023-02-13T09:12:44.270Z,29.17
2023-02-13T09:15:13.842Z,27.47
2023-02-13T09:17:41.988Z,25.57
2023-02-13T09:20:12.433Z,23.97
2023-02-13T09:22:40.627Z,25.20
2023-02-13T09:25:09.635Z,19.83
2023-02-13T09:27:39.409Z,24.10
2023-02-13T09:30:09.126Z,22.07
2023-02-13T09:32:38.767Z,19.43
2023-02-13T09:35:07.669Z,19.03
2023-02-13T09:37:35.903Z,21.33
2023-02-13T09:40:04.338Z,15.20
2023-02-13T09:42:36.945Z,25.97
2023-02-13T09:45:07.601Z,21.70
2023-02-13T09:47:40.471Z,19.43
2023-02-13T09:50:15.035Z,23.10
2023-02-13T09:52:46.725Z,22.63
2023-02-13T09:55:20.726Z,22.40
2023-02-13T09:57:56.307Z,20.70
2023-02-13T10:00:30.668Z,26.80
2023-02-13T10:03:17.103Z,22.30
2023-02-13T10:05:57.310Z,22.33
2023-02-13T10:08:40.719Z,28.00
2023-02-13T10:11:21.959Z,23.57
2023-02-13T10:14:02.545Z,24.73
2023-02-13T10:16:36.462Z,22.90
2023-02-13T10:19:13.460Z,20.63
2023-02-13T10:21:54.622Z,24.37
2023-02-13T10:24:31.184Z,26.17
2023-02-13T10:27:02.125Z,23.87
2023-02-13T10:29:57.024Z,27.03
2023-02-13T10:32:35.839Z,23.13
2023-02-13T10:35:17.120Z,25.27
2023-02-13T10:37:50.851Z,22.87
2023-02-13T10:40:20.318Z,24.37
2023-02-13T10:42:57.960Z,28.50
2023-02-13T10:45:50.833Z,26.70
2023-02-13T10:48:44.331Z,30.63
2023-02-13T10:51:20.536Z,32.23
2023-02-13T10:54:02.659Z,29.50
2023-02-13T10:56:34.728Z,30.97
2023-02-13T10:59:23.812Z,29.33
2023-02-13T11:01:57.808Z,27.57
2023-02-13T11:04:26.031Z,28.27
2023-02-13T11:06:58.632Z,28.67
2023-02-13T11:09:27.470Z,24.53
2023-02-13T11:11:55.926Z,31.03
2023-02-13T11:14:25.836Z,25.77
2023-02-13T11:16:59.085Z,30.67
2023-02-13T11:19:32.670Z,29.63
2023-02-13T11:22:05.978Z,26.20
2023-02-13T11:24:34.838Z,26.30
2023-02-13T11:27:09.043Z,26.40
2023-02-13T11:29:38.718Z,26.20
2023-02-13T11:32:21.808Z,27.13
2023-02-13T11:34:51.957Z,25.73
2023-02-13T11:37:24.879Z,26.57
2023-02-13T11:39:54.958Z,29.37
2023-02-13T11:42:28.361Z,24.47
2023-02-13T11:45:01.377Z,24.90
2023-02-13T11:47:41.277Z,29.70
2023-02-13T11:50:23.095Z,30.40
2023-02-13T11:52:58.836Z,25.60
2023-02-13T11:55:33.189Z,28.13
2023-02-13T11:58:03.456Z,24.37
2023-02-13T12:00:37.777Z,23.67
2023-02-13T12:03:27.954Z,23.13
2023-02-13T12:06:06.041Z,23.20
2023-02-13T12:08:38.060Z,22.57
2023-02-13T12:11:21.327Z,27.23
2023-02-13T12:13:50.810Z,21.67
2023-02-13T12:16:29.786Z,24.23
2023-02-13T12:19:01.526Z,25.20
2023-02-13T12:21:45.906Z,21.53
2023-02-13T12:24:27.172Z,24.37
2023-02-13T12:27:01.184Z,26.23
2023-02-13T12:29:59.714Z,21.53
2023-02-13T12:32:38.982Z,18.10
2023-02-13T12:35:29.551Z,19.17
2023-02-13T12:38:03.056Z,17.43
2023-02-13T12:40:46.223Z,22.07
2023-02-13T12:43:38.195Z,24.57
2023-02-13T12:46:12.105Z,20.93
2023-02-13T12:48:50.759Z,17.90
2023-02-13T12:51:34.858Z,23.40
2023-02-13T12:54:23.145Z,16.47
2023-02-13T12:57:04.726Z,18.43
2023-02-13T12:59:46.762Z,16.53
2023-02-13T13:02:45.056Z,14.43
2023-02-13T13:05:40.944Z,14.77
2023-02-13T13:08:30.236Z,17.37
2023-02-13T13:11:12.510Z,13.07
2023-02-13T13:13:51.237Z,18.10
2023-02-13T13:16:26.643Z,17.53
2023-02-13T13:19:04.465Z,14.37
2023-02-13T13:21:40.929Z,18.37
2023-02-13T13:24:23.158Z,13.40
2023-02-13T13:26:54.166Z,20.17
2023-02-13T13:29:26.360Z,11.87
2023-02-13T13:31:57.298Z,14.20
2023-02-13T13:34:27.445Z,15.27
2023-02-13T13:37:01.926Z,11.87
2023-02-13T13:39:41.959Z,14.20
2023-02-13T13:42:17.059Z,16.50
2023-02-13T13:45:10.783Z,17.93
2023-02-13T13:47:50.155Z,15.90
2023-02-13T13:50:24.677Z,15.10
2023-02-13T13:53:16.080Z,15.97
2023-02-13T13:56:09.435Z,14.30
2023-02-13T13:58:41.106Z,17.13
2023-02-13T14:01:26.178Z,14.07
2023-02-13T14:03:56.257Z,14.37
2023-02-13T14:06:26.850Z,15.17
2023-02-13T14:09:04.658Z,13.57
2023-02-13T14:11:42.094Z,12.97
2023-02-13T14:14:53.113Z,16.30
2023-02-13T14:17:53.078Z,14.57
2023-02-13T14:20:28.315Z,13.57
2023-02-13T14:22:57.163Z,11.87
2023-02-13T14:25:27.981Z,16.87
2023-02-13T14:27:59.200Z,10.83
2023-02-13T14:30:32.782Z,8.73
2023-02-13T14:33:05.979Z,13.27
2023-02-13T14:35:37.269Z,12.47
2023-02-13T14:38:08.203Z,15.80
2023-02-13T14:40:54.438Z,12.23
2023-02-13T14:43:38.955Z,15.77
2023-02-13T14:46:23.870Z,15.57
2023-02-13T14:48:59.478Z,15.90
2023-02-13T14:51:34.947Z,18.30
2023-02-13T14:54:10.968Z,15.47
2023-02-13T14:56:40.235Z,18.03
2023-02-13T14:59:15.510Z,14.77
2023-02-13T15:01:50.603Z,15.00
2023-02-13T15:04:27.996Z,13.87
2023-02-13T15:06:58.740Z,18.00
2023-02-13T15:09:33.915Z,16.63
2023-02-13T15:12:02.746Z,15.03
2023-02-13T15:14:35.479Z,17.97
2023-02-13T15:17:08.360Z,18.43
2023-02-13T15:19:44.209Z,17.07
2023-02-13T15:22:20.411Z,18.27
2023-02-13T15:24:50.251Z,13.10
2023-02-13T15:27:23.024Z,16.30
2023-02-13T15:30:00.635Z,18.30
2023-02-13T15:32:31.804Z,15.87
2023-02-13T15:35:01.541Z,13.43
2023-02-13T15:37:31.568Z,15.50
2023-02-13T15:40:16.314Z,13.87
2023-02-13T15:42:44.480Z,15.67
2023-02-13T15:45:17.587Z,15.70
2023-02-13T15:47:46.852Z,14.63
2023-02-13T15:50:23.396Z,17.77
2023-02-13T15:52:52.854Z,16.10
2023-02-13T15:55:23.329Z,19.17
2023-02-13T15:57:52.452Z,23.63
2023-02-13T16:00:25.360Z,25.83
2023-02-13T16:02:55.841Z,23.53
2023-02-13T16:05:39.446Z,26.60
2023-02-13T16:08:32.546Z,19.63
2023-02-13T16:11:35.872Z,22.20
2023-02-13T16:14:13.889Z,23.77
2023-02-13T16:16:48.612Z,19.97
2023-02-13T16:19:26.326Z,18.33
2023-02-13T16:21:59.147Z,19.10
2023-02-13T16:24:28.398Z,19.90
2023-02-13T16:26:57.216Z,15.40
2023-02-13T16:29:28.552Z,16.97
2023-02-13T16:32:07.150Z,23.93
2023-02-13T16:34:35.511Z,21.13
2023-02-13T16:37:05.095Z,19.43
2023-02-13T16:39:34.613Z,24.23
2023-02-13T16:42:03.218Z,19.23
2023-02-13T16:44:33.557Z,25.00
2023-02-13T16:47:03.542Z,21.50
2023-02-13T16:49:33.737Z,19.73
2023-02-13T16:52:12.541Z,22.47
2023-02-13T16:54:49.496Z,16.07
2023-02-13T16:57:24.617Z,18.40
2023-02-13T17:00:09.735Z,17.07
2023-02-13T17:02:39.981Z,20.33
2023-02-13T17:05:21.459Z,15.57
2023-02-13T17:07:54.459Z,18.17
2023-02-13T17:10:27.298Z,18.63
2023-02-13T17:12:56.725Z,19.43
2023-02-13T17:15:26.522Z,15.73
2023-02-13T17:17:55.173Z,28.20
2023-02-13T17:20:26.256Z,18.80
2023-02-13T17:22:57.138Z,28.87
2023-02-13T17:25:27.462Z,23.87
2023-02-13T17:27:57.344Z,24.30
2023-02-13T17:30:28.646Z,45.20
2023-02-13T17:33:00.122Z,28.70
2023-02-13T17:35:28.226Z,23.00
2023-02-13T17:37:57.707Z,15.63
2023-02-13T17:40:29.633Z,16.50
2023-02-13T17:42:59.569Z,18.63
2023-02-13T17:45:29.874Z,21.03
2023-02-13T17:47:58.745Z,23.23
2023-02-13T17:50:27.832Z,20.07
2023-02-13T17:52:58.338Z,21.97
2023-02-13T17:55:28.172Z,18.90
2023-02-13T17:57:57.964Z,23.23
2023-02-13T18:00:29.210Z,22.07
2023-02-13T18:02:57.944Z,19.40
2023-02-13T18:05:26.393Z,25.77
2023-02-13T18:07:54.645Z,19.73
2023-02-13T18:10:26.412Z,24.90
2023-02-13T18:12:56.674Z,18.90
2023-02-13T18:15:25.408Z,18.87
2023-02-13T18:17:53.610Z,20.23
2023-02-13T18:20:22.507Z,16.00
2023-02-13T18:22:51.378Z,22.70
2023-02-13T18:25:21.174Z,28.50
2023-02-13T18:27:51.457Z,18.17
2023-02-13T18:30:21.576Z,20.10
2023-02-13T18:32:53.246Z,23.90
2023-02-13T18:35:21.716Z,23.10
2023-02-13T18:37:50.775Z,27.27
2023-02-13T18:40:19.272Z,22.23
2023-02-13T18:42:47.886Z,21.27
2023-02-13T18:45:18.404Z,23.13
2023-02-13T18:47:46.680Z,13.93
2023-02-13T18:50:14.949Z,22.17
2023-02-13T18:52:43.241Z,16.03
2023-02-13T18:55:11.383Z,16.27
2023-02-13T18:57:43.612Z,23.00
2023-02-13T19:00:14.443Z,23.30
2023-02-13T19:02:44.286Z,15.53
2023-02-13T19:05:12.750Z,19.83
2023-02-13T19:07:40.900Z,18.70
2023-02-13T19:10:09.790Z,24.03
2023-02-13T19:12:38.233Z,18.43
2023-02-13T19:15:06.932Z,18.30
2023-02-13T19:17:35.953Z,20.20
2023-02-13T19:20:06.470Z,17.40
2023-02-13T19:22:34.823Z,15.70
2023-02-13T19:25:02.983Z,16.13
2023-02-13T19:27:31.175Z,17.37
2023-02-13T19:29:59.875Z,17.83
2023-02-13T19:32:28.181Z,15.63
2023-02-13T19:34:56.532Z,13.70
2023-02-13T19:37:30.561Z,14.00
2023-02-13T19:39:58.840Z,27.97
2023-02-13T19:42:27.102Z,18.97
2023-02-13T19:44:55.236Z,18.70
2023-02-13T19:47:23.562Z,17.03
2023-02-13T19:49:53.405Z,17.70
2023-02-13T19:52:21.613Z,18.73
2023-02-13T19:54:51.301Z,16.23
2023-02-13T19:57:20.227Z,14.53
2023-02-13T19:59:49.375Z,11.83
2023-02-13T20:02:19.110Z,17.00
2023-02-13T20:04:47.600Z,16.40
2023-02-13T20:07:16.280Z,16.60
2023-02-13T20:09:44.853Z,17.13
2023-02-13T20:12:14.344Z,15.27
2023-02-13T20:14:42.973Z,15.70
2023-02-13T20:17:11.328Z,12.30
2023-02-13T20:19:40.076Z,12.17
2023-02-13T20:22:08.682Z,13.33
2023-02-13T20:24:37.199Z,13.90
2023-02-13T20:27:05.757Z,14.63
2023-02-13T20:29:37.256Z,16.87
2023-02-13T20:32:06.941Z,15.23
2023-02-13T20:34:44.130Z,19.33
2023-02-13T20:37:26.122Z,18.67
2023-02-13T20:39:57.434Z,15.37
2023-02-13T20:42:26.146Z,13.80
2023-02-13T20:44:55.655Z,15.47
2023-02-13T20:47:23.928Z,13.20
2023-02-13T20:49:52.116Z,17.13
2023-02-13T20:52:20.755Z,14.83
2023-02-13T20:54:49.020Z,13.33
2023-02-13T20:57:21.026Z,17.47
2023-02-13T20:59:49.251Z,15.50
2023-02-13T21:02:19.570Z,14.33
2023-02-13T21:04:48.098Z,13.03
2023-02-13T21:07:16.386Z,15.77
2023-02-13T21:09:44.509Z,14.13
2023-02-13T21:12:15.774Z,17.70
2023-02-13T21:14:43.950Z,15.53
2023-02-13T21:17:12.170Z,18.47
2023-02-13T21:19:41.858Z,20.63
2023-02-13T21:22:13.103Z,13.20
2023-02-13T21:24:42.717Z,21.20
2023-02-13T21:27:11.659Z,15.43
2023-02-13T21:29:40.060Z,14.20
2023-02-13T21:32:08.761Z,17.07
2023-02-13T21:34:37.456Z,15.80
2023-02-13T21:37:07.053Z,15.73
2023-02-13T21:39:36.250Z,14.47
2023-02-13T21:42:05.137Z,14.40
2023-02-13T21:44:33.544Z,17.13
2023-02-13T21:47:01.845Z,14.73
2023-02-13T21:49:30.107Z,18.37
2023-02-13T21:51:58.302Z,11.40
2023-02-13T21:54:27.961Z,23.57
2023-02-13T21:56:56.072Z,15.33
2023-02-13T21:59:24.329Z,16.77
2023-02-13T22:01:54.162Z,18.17
2023-02-13T22:04:22.512Z,19.47
2023-02-13T22:06:52.956Z,19.13
2023-02-13T22:09:22.448Z,20.30
2023-02-13T22:11:54.639Z,18.20
2023-02-13T22:14:23.062Z,18.87
2023-02-13T22:16:52.568Z,18.63
2023-02-13T22:19:21.353Z,19.90
2023-02-13T22:21:49.503Z,19.10
2023-02-13T22:24:17.712Z,14.23
2023-02-13T22:26:46.530Z,23.83
2023-02-13T22:29:18.492Z,20.80
2023-02-13T22:31:46.836Z,18.10
2023-02-13T22:34:15.936Z,13.93
2023-02-13T22:36:44.130Z,18.73
2023-02-13T22:39:13.110Z,12.70
2023-02-13T22:41:42.314Z,12.60
2023-02-13T22:44:10.448Z,13.03
2023-02-13T22:46:40.006Z,13.40
2023-02-13T22:49:08.178Z,14.13
2023-02-13T22:51:37.577Z,16.43
2023-02-13T22:54:06.797Z,18.03
2023-02-13T22:56:35.708Z,12.17
2023-02-13T22:59:04.195Z,12.43
2023-02-13T23:01:32.527Z,14.53
2023-02-13T23:04:02.092Z,19.70
2023-02-13T23:06:31.519Z,16.23
2023-02-13T23:08:59.624Z,15.30
2023-02-13T23:11:46.638Z,16.10
2023-02-13T23:14:15.701Z,11.83
2023-02-13T23:17:01.805Z,13.60
2023-02-13T23:19:31.503Z,11.00
2023-02-13T23:22:00.158Z,13.77
2023-02-13T23:24:28.859Z,15.30
2023-02-13T23:26:56.943Z,13.20
2023-02-13T23:29:25.076Z,15.53
2023-02-13T23:31:53.332Z,14.10
2023-02-13T23:34:21.477Z,17.53
2023-02-13T23:36:51.023Z,19.10
2023-02-13T23:39:19.912Z,14.07
2023-02-13T23:41:48.131Z,16.67
2023-02-13T23:44:16.270Z,12.10
2023-02-13T23:46:44.481Z,18.60
2023-02-13T23:49:12.611Z,14.27
2023-02-13T23:51:40.719Z,15.87
2023-02-13T23:54:10.282Z,17.93
2023-02-13T23:56:38.440Z,16.10
2023-02-13T23:59:06.540Z,12.57
